Time;durP1;ratioP1;P1;durP2;ratioP2;P2;SDS_P1;SDS_P2;PMS_P1;PMS_P2;Temp;Humidity;BMP_temperature;BMP_pressure;BME280_temperature;BME280_humidity;BME280_pressure;Samples;Min_cycle;Max_cycle;Signal;HPM_P1;HPM_P2
2021/06/22 06:55:26;;;;;;;6.17;2.53;;;13.00;99.90;;;;;;4894613;29;20238;-79
2021/06/22 06:57:54;;;;;;;4.10;2.20;;;12.90;99.90;;;;;;4897490;29;20653;-77
2021/06/22 07:00:22;;;;;;;7.73;2.87;;;12.90;99.90;;;;;;4899637;29;20317;-74
2021/06/22 07:02:49;;;;;;;6.40;2.30;;;12.90;99.90;;;;;;4900222;29;20218;-76
2021/06/22 07:05:16;;;;;;;3.57;2.40;;;12.80;99.90;;;;;;4899748;29;20274;-78
2021/06/22 07:07:44;;;;;;;4.13;2.50;;;12.90;99.90;;;;;;4900098;29;20216;-79
2021/06/22 07:10:11;;;;;;;4.80;2.20;;;12.90;99.90;;;;;;4900354;29;20316;-77
2021/06/22 07:12:40;;;;;;;6.00;2.30;;;13.00;99.90;;;;;;4900095;29;20221;-80
2021/06/22 07:15:08;;;;;;;6.83;2.63;;;12.90;99.90;;;;;;4900024;29;20551;-79
2021/06/22 07:17:35;;;;;;;7.03;2.60;;;12.90;99.90;;;;;;4899486;29;20206;-77
2021/06/22 07:20:02;;;;;;;6.67;2.77;;;12.90;99.90;;;;;;4899930;29;20230;-75
2021/06/22 07:22:29;;;;;;;6.40;2.63;;;12.90;99.90;;;;;;4898904;29;20214;-77
2021/06/22 07:24:56;;;;;;;8.43;3.30;;;12.90;99.90;;;;;;4899409;29;20678;-76
2021/06/22 07:27:23;;;;;;;6.27;2.70;;;13.00;99.90;;;;;;4899445;29;20214;-76
2021/06/22 07:29:51;;;;;;;7.03;2.90;;;13.00;99.90;;;;;;4899837;29;20325;-78
2021/06/22 07:32:18;;;;;;;8.43;3.30;;;13.10;99.90;;;;;;4899781;29;20237;-76
2021/06/22 07:34:45;;;;;;;4.67;2.43;;;13.10;99.90;;;;;;4918451;29;20209;-81
2021/06/22 07:37:12;;;;;;;5.00;2.63;;;13.10;99.90;;;;;;4911947;29;20602;-78
2021/06/22 07:39:39;;;;;;;5.30;2.80;;;13.10;99.90;;;;;;4899616;29;20325;-75
2021/06/22 07:42:06;;;;;;;6.57;3.17;;;13.30;99.90;;;;;;4899567;29;20233;-80
2021/06/22 07:44:33;;;;;;;4.93;2.93;;;13.40;99.90;;;;;;4899413;29;20210;-75
2021/06/22 07:47:01;;;;;;;6.67;3.37;;;13.60;99.90;;;;;;4899186;29;20207;-78
2021/06/22 07:49:28;;;;;;;6.53;3.10;;;13.70;99.90;;;;;;4900324;29;20210;-77
2021/06/22 07:51:55;;;;;;;6.20;3.03;;;13.60;99.90;;;;;;4900435;29;20684;-74
2021/06/22 07:54:22;;;;;;;5.27;2.90;;;13.60;99.90;;;;;;4899960;29;20218;-76
2021/06/22 07:56:48;;;;;;;8.20;3.50;;;13.80;99.90;;;;;;4900233;29;20234;-77
2021/06/22 07:59:15;;;;;;;6.33;3.00;;;13.90;99.90;;;;;;4900828;29;20206;-76
2021/06/22 08:01:42;;;;;;;6.07;3.90;;;14.00;99.90;;;;;;4900451;29;20231;-81
2021/06/22 08:04:10;;;;;;;7.53;3.37;;;14.10;99.90;;;;;;4900727;29;20214;-76
2021/06/22 08:06:37;;;;;;;6.47;2.87;;;14.10;99.90;;;;;;4900050;29;20562;-75
2021/06/22 08:09:04;;;;;;;8.57;3.53;;;14.00;99.90;;;;;;4899921;29;20218;-74
2021/06/22 08:11:31;;;;;;;9.77;3.43;;;13.90;99.90;;;;;;4900475;29;20236;-74
2021/06/22 08:13:57;;;;;;;7.43;3.20;;;13.90;99.90;;;;;;4900154;29;20218;-75
2021/06/22 08:16:24;;;;;;;8.20;3.67;;;13.90;99.90;;;;;;4900061;29;20238;-75
2021/06/22 08:18:51;;;;;;;7.53;3.77;;;13.70;99.90;;;;;;4900316;29;20214;-75
2021/06/22 08:21:19;;;;;;;6.50;2.90;;;13.80;99.90;;;;;;4900236;29;20234;-75
2021/06/22 08:23:46;;;;;;;6.63;3.33;;;13.80;99.90;;;;;;4899692;29;20211;-75
2021/06/22 08:26:13;;;;;;;5.57;3.33;;;13.90;99.90;;;;;;4900149;29;20210;-75
2021/06/22 08:28:40;;;;;;;7.90;3.47;;;13.80;99.90;;;;;;4899504;29;20221;-75
2021/06/22 08:31:06;;;;;;;5.17;3.20;;;13.80;99.90;;;;;;4899850;29;20326;-74
2021/06/22 08:33:33;;;;;;;6.73;3.07;;;13.80;99.90;;;;;;4899948;29;20236;-75
2021/06/22 08:36:01;;;;;;;4.80;3.17;;;13.70;99.90;;;;;;4899689;29;20266;-75
2021/06/22 08:38:29;;;;;;;5.77;3.10;;;13.70;99.90;;;;;;4899772;29;20650;-75
2021/06/22 08:40:56;;;;;;;5.97;3.93;;;13.80;99.90;;;;;;4899702;29;20226;-75
2021/06/22 08:43:23;;;;;;;9.57;3.27;;;13.70;99.90;;;;;;4899762;29;20214;-75
2021/06/22 08:45:51;;;;;;;6.43;3.37;;;13.60;99.90;;;;;;4899854;29;20242;-75
2021/06/22 08:48:18;;;;;;;5.77;3.43;;;13.40;99.90;;;;;;4899521;29;20214;-75
2021/06/22 08:50:47;;;;;;;6.70;3.73;;;13.50;99.90;;;;;;4899228;29;20233;-75
2021/06/22 08:53:14;;;;;;;7.93;3.80;;;13.50;99.90;;;;;;4899615;29;20210;-74
2021/06/22 08:55:43;;;;;;;6.87;3.67;;;13.40;99.90;;;;;;4898890;29;20234;-75
2021/06/22 08:58:12;;;;;;;8.03;4.13;;;13.40;99.90;;;;;;4899656;29;20218;-75
2021/06/22 09:00:42;;;;;;;8.37;3.67;;;13.40;99.90;;;;;;4899373;29;20579;-75
2021/06/22 09:03:11;;;;;;;5.47;3.30;;;13.50;99.90;;;;;;4899452;29;20217;-75
2021/06/22 09:05:39;;;;;;;6.83;3.77;;;13.60;99.90;;;;;;4898943;29;20206;-75
2021/06/22 09:08:13;;;;;;;11.47;4.50;;;13.70;99.90;;;;;;4899065;29;20289;-75
2021/06/22 09:10:42;;;;;;;10.17;3.47;;;13.90;99.90;;;;;;4899322;29;20376;-75
2021/06/22 09:13:13;;;;;;;10.63;4.07;;;14.00;99.90;;;;;;4899059;29;20582;-75
2021/06/22 09:15:45;;;;;;;10.90;3.43;;;14.10;99.90;;;;;;4899121;29;20238;-75
2021/06/22 09:18:30;;;;;;;6.60;3.43;;;14.20;99.90;;;;;;4899080;29;20218;-75
2021/06/22 09:20:58;;;;;;;5.47;3.37;;;14.40;99.90;;;;;;4898353;29;20230;-75
2021/06/22 09:23:27;;;;;;;7.53;3.93;;;14.60;99.90;;;;;;4900204;29;20298;-75
2021/06/22 09:25:57;;;;;;;8.07;3.07;;;14.90;99.90;;;;;;4900171;29;20222;-75
2021/06/22 09:28:30;;;;;;;4.97;3.23;;;15.00;99.90;;;;;;4899329;29;20235;-75
2021/06/22 09:30:59;;;;;;;6.73;3.60;;;15.00;99.90;;;;;;4898467;29;20294;-75
2021/06/22 09:33:31;;;;;;;6.57;3.40;;;15.20;99.90;;;;;;4898967;29;20213;-75
2021/06/22 09:36:07;;;;;;;6.03;3.40;;;15.40;99.90;;;;;;4898675;29;20237;-75
2021/06/22 09:38:37;;;;;;;4.50;3.00;;;15.40;99.90;;;;;;4898729;29;20273;-76
2021/06/22 09:41:10;;;;;;;5.43;2.87;;;15.30;99.90;;;;;;4898521;29;20325;-75
2021/06/22 09:43:39;;;;;;;5.03;3.17;;;15.10;99.90;;;;;;4898610;29;20210;-76
2021/06/22 09:46:07;;;;;;;5.77;3.00;;;14.90;99.90;;;;;;4898939;29;20218;-75
2021/06/22 09:48:42;;;;;;;7.10;3.13;;;14.80;99.90;;;;;;4898729;29;20277;-75
2021/06/22 09:51:09;;;;;;;6.80;2.80;;;15.10;99.90;;;;;;4898496;29;20230;-76
2021/06/22 09:53:35;;;;;;;5.57;2.53;;;15.10;99.90;;;;;;4898507;29;20207;-76
2021/06/22 09:56:03;;;;;;;5.57;2.83;;;15.50;99.90;;;;;;4898208;29;20238;-75
2021/06/22 09:58:40;;;;;;;6.83;3.20;;;15.60;99.90;;;;;;4899369;29;20210;-75
2021/06/22 10:01:25;;;;;;;5.53;2.33;;;15.70;99.90;;;;;;4898300;29;20322;-75
2021/06/22 10:03:52;;;;;;;6.27;2.93;;;15.40;99.90;;;;;;4898100;29;20270;-76
2021/06/22 10:06:19;;;;;;;5.90;2.80;;;15.30;99.90;;;;;;4898401;29;20606;-76
2021/06/22 10:08:57;;;;;;;5.10;2.70;;;15.20;99.90;;;;;;4899803;29;20206;-74
2021/06/22 10:11:35;;;;;;;4.33;2.90;;;15.00;99.90;;;;;;4902930;29;20233;-75
2021/06/22 10:14:06;;;;;;;4.37;2.50;;;15.10;99.90;;;;;;4905806;29;20214;-75
2021/06/22 10:16:34;;;;;;;4.87;2.60;;;15.20;99.90;;;;;;4898240;29;20337;-76
2021/06/22 10:19:03;;;;;;;6.00;2.73;;;15.40;99.90;;;;;;4898461;29;20211;-76
2021/06/22 10:21:31;;;;;;;5.60;2.97;;;15.50;99.90;;;;;;4899049;29;20237;-76
2021/06/22 10:23:58;;;;;;;5.43;2.73;;;15.40;99.90;;;;;;4900152;29;20213;-76
2021/06/22 10:26:28;;;;;;;7.93;3.50;;;15.70;99.90;;;;;;4898806;29;20262;-75
2021/06/22 10:28:55;;;;;;;7.60;2.83;;;15.80;99.90;;;;;;4898768;29;20651;-76
2021/06/22 10:31:24;;;;;;;7.20;3.17;;;15.70;99.90;;;;;;4897424;29;20234;-75
2021/06/22 10:33:50;;;;;;;5.37;2.90;;;15.50;99.90;;;;;;4898317;29;20221;-76
2021/06/22 10:36:28;;;;;;;6.63;3.43;;;15.60;99.90;;;;;;4898018;29;20236;-75
2021/06/22 10:39:00;;;;;;;7.30;3.27;;;15.40;99.90;;;;;;4898378;29;20640;-76
2021/06/22 10:41:39;;;;;;;6.53;3.20;;;15.20;99.90;;;;;;4897847;29;20293;-75
2021/06/22 10:44:30;;;;;;;7.60;3.83;;;15.20;99.90;;;;;;4897789;29;20262;-76
2021/06/22 10:47:29;;;;;;;6.53;3.43;;;15.30;99.90;;;;;;4897869;29;20293;-76
2021/06/22 10:50:19;;;;;;;9.10;3.57;;;15.20;99.90;;;;;;4897558;29;20230;-76
2021/06/22 10:53:04;;;;;;;6.40;3.57;;;15.40;99.90;;;;;;4897755;29;20301;-78
2021/06/22 10:56:17;;;;;;;9.03;4.33;;;15.10;99.90;;;;;;4890475;29;20313;-79
2021/06/22 10:59:25;;;;;;;9.23;4.67;;;15.00;99.90;;;;;;4898028;29;20222;-76
2021/06/22 11:02:06;;;;;;;8.20;4.37;;;15.00;99.90;;;;;;4897597;29;20543;-75
2021/06/22 11:04:35;;;;;;;5.90;4.83;;;15.00;99.90;;;;;;4897553;29;20210;-76
2021/06/22 11:07:23;;;;;;;11.30;5.57;;;15.00;99.90;;;;;;4898009;29;20210;-76
2021/06/22 11:10:15;;;;;;;10.07;4.73;;;15.10;99.90;;;;;;4897890;29;20230;-76
2021/06/22 11:12:54;;;;;;;11.80;5.63;;;15.20;99.90;;;;;;4898100;29;20373;-76
2021/06/22 11:15:22;;;;;;;8.10;4.83;;;15.20;99.90;;;;;;4897733;29;20214;-76
2021/06/22 11:18:09;;;;;;;12.93;5.00;;;15.20;99.90;;;;;;4897742;29;20238;-76
2021/06/22 11:20:42;;;;;;;9.37;5.00;;;15.20;99.90;;;;;;4897569;29;20234;-76
2021/06/22 11:23:11;;;;;;;8.70;5.20;;;15.30;99.90;;;;;;4897414;29;20217;-76
2021/06/22 11:26:00;;;;;;;12.60;5.17;;;15.50;99.90;;;;;;4896978;29;20258;-76
2021/06/22 11:28:27;;;;;;;8.10;4.67;;;15.50;99.90;;;;;;4897561;29;20218;-76
2021/06/22 11:30:57;;;;;;;10.47;5.80;;;15.40;99.90;;;;;;4897566;29;20245;-76
2021/06/22 11:33:44;;;;;;;11.90;5.70;;;15.20;99.90;;;;;;4897727;29;20232;-76
2021/06/22 11:36:32;;;;;;;13.93;5.80;;;15.10;99.90;;;;;;4897573;29;20214;-75
2021/06/22 11:39:20;;;;;;;9.63;6.60;;;15.20;99.90;;;;;;4897544;29;20297;-76
2021/06/22 11:42:20;;;;;;;9.17;6.27;;;15.40;99.90;;;;;;4897452;29;20210;-76
2021/06/22 11:44:50;;;;;;;10.03;5.67;;;15.30;99.90;;;;;;4897413;29;20214;-75
2021/06/22 11:47:52;;;;;;;10.43;6.23;;;15.30;99.90;;;;;;4900761;29;20642;-76
2021/06/22 11:50:25;;;;;;;9.93;6.37;;;15.50;99.90;;;;;;4900441;29;20320;-76
2021/06/22 11:53:01;;;;;;;13.87;6.27;;;15.60;99.90;;;;;;4900422;29;20214;-76
2021/06/22 11:55:28;;;;;;;9.20;6.00;;;15.80;99.90;;;;;;4900187;29;20299;-76
2021/06/22 11:57:58;;;;;;;11.47;6.60;;;15.80;99.90;;;;;;4900600;29;20781;-76
2021/06/22 12:00:28;;;;;;;12.63;6.73;;;15.90;99.90;;;;;;4900897;29;20236;-76
2021/06/22 12:02:56;;;;;;;10.77;6.73;;;16.00;99.90;;;;;;4900208;29;20674;-76
2021/06/22 12:05:25;;;;;;;11.87;6.47;;;15.80;99.90;;;;;;4900331;29;20635;-76
2021/06/22 12:07:53;;;;;;;9.07;6.27;;;15.80;99.90;;;;;;4900396;29;20666;-76
2021/06/22 12:10:22;;;;;;;11.63;6.40;;;15.70;99.90;;;;;;4900234;29;20242;-76
2021/06/22 12:12:50;;;;;;;9.77;6.10;;;15.50;99.90;;;;;;4900279;29;20212;-76
2021/06/22 12:15:29;;;;;;;13.70;6.90;;;15.70;99.90;;;;;;4900290;29;20222;-76
2021/06/22 12:17:56;;;;;;;12.97;6.50;;;15.80;99.90;;;;;;4899978;29;20601;-76
2021/06/22 12:20:24;;;;;;;12.80;6.80;;;15.90;99.90;;;;;;4900316;29;20230;-75
2021/06/22 12:22:53;;;;;;;13.33;6.77;;;16.10;99.90;;;;;;4900368;29;20214;-76
2021/06/22 12:25:25;;;;;;;9.73;6.33;;;15.90;99.90;;;;;;4900373;29;20210;-76
2021/06/22 12:27:57;;;;;;;10.70;6.87;;;15.80;99.90;;;;;;4894820;29;20214;-76
2021/06/22 12:30:39;;;;;;;13.47;7.10;;;15.90;99.90;;;;;;4899688;29;20234;-80
2021/06/22 12:33:10;;;;;;;11.33;7.13;;;16.00;99.90;;;;;;4899958;29;20254;-74
2021/06/22 12:35:37;;;;;;;11.63;6.53;;;16.20;99.90;;;;;;4900118;29;20561;-81
2021/06/22 12:38:06;;;;;;;12.47;6.67;;;16.30;99.90;;;;;;4899899;29;20245;-72
2021/06/22 12:40:44;;;;;;;10.33;5.93;;;16.30;99.90;;;;;;4899479;29;20230;-71
2021/06/22 12:43:12;;;;;;;10.97;6.63;;;16.30;99.90;;;;;;4899906;29;20206;-72
2021/06/22 12:45:39;;;;;;;10.40;6.57;;;16.20;99.90;;;;;;4899794;29;20245;-72
2021/06/22 12:48:07;;;;;;;10.87;6.53;;;16.10;99.90;;;;;;4899069;29;20214;-74
2021/06/22 12:50:36;;;;;;;9.00;6.10;;;16.30;99.90;;;;;;4899998;29;20231;-75
2021/06/22 12:53:04;;;;;;;14.10;6.90;;;16.30;99.90;;;;;;4900117;29;20310;-76
2021/06/22 12:55:47;;;;;;;12.93;7.03;;;16.30;99.90;;;;;;4899018;29;20224;-71
2021/06/22 12:58:16;;;;;;;12.73;7.37;;;16.30;99.90;;;;;;4899138;29;20233;-76
2021/06/22 13:00:44;;;;;;;11.27;6.40;;;16.30;99.90;;;;;;4899353;29;20230;-79
2021/06/22 13:03:14;;;;;;;10.67;6.53;;;16.30;99.90;;;;;;4894267;29;20211;-74
2021/06/22 13:05:43;;;;;;;12.03;6.80;;;16.40;99.90;;;;;;4899034;29;20210;-72
2021/06/22 13:08:10;;;;;;;11.63;7.13;;;16.40;99.90;;;;;;4898902;29;20207;-72
2021/06/22 13:10:51;;;;;;;8.80;6.57;;;16.50;99.90;;;;;;4898761;29;20233;-71
2021/06/22 13:13:27;;;;;;;10.63;6.63;;;16.40;99.90;;;;;;4899275;29;20232;-72
2021/06/22 13:16:11;;;;;;;11.23;6.17;;;16.40;99.90;;;;;;4899209;29;20299;-71
2021/06/22 13:18:58;;;;;;;15.53;7.23;;;16.40;99.90;;;;;;4899324;29;20234;-71
2021/06/22 13:21:34;;;;;;;10.93;6.43;;;16.40;99.90;;;;;;4899076;29;20236;-72
2021/06/22 13:24:01;;;;;;;12.27;7.03;;;16.20;99.90;;;;;;4898594;29;20665;-72
2021/06/22 13:26:28;;;;;;;10.43;6.23;;;16.20;99.90;;;;;;4898698;29;20218;-72
2021/06/22 13:28:57;;;;;;;15.07;7.50;;;16.30;99.90;;;;;;4898657;29;20217;-72
2021/06/22 13:31:24;;;;;;;13.57;6.67;;;16.50;99.90;;;;;;4898311;29;20234;-72
2021/06/22 13:34:00;;;;;;;11.00;7.07;;;16.50;99.90;;;;;;4899092;29;20206;-72
2021/06/22 13:36:27;;;;;;;11.30;6.53;;;16.60;99.90;;;;;;4898840;29;20213;-71
2021/06/22 13:39:08;;;;;;;12.67;7.07;;;16.60;99.90;;;;;;4898457;29;20245;-72
2021/06/22 13:41:50;;;;;;;9.63;6.87;;;16.70;99.90;;;;;;4898151;29;20321;-71
2021/06/22 13:44:41;;;;;;;10.60;6.87;;;16.70;99.90;;;;;;4898694;29;20233;-71
2021/06/22 13:47:10;;;;;;;12.67;6.97;;;16.50;99.90;;;;;;4898486;29;20214;-71
2021/06/22 13:49:41;;;;;;;9.97;6.20;;;16.50;99.90;;;;;;4898609;29;20207;-71
2021/06/22 13:52:09;;;;;;;11.63;6.47;;;16.40;99.90;;;;;;4898479;29;20305;-72
2021/06/22 13:54:36;;;;;;;10.73;6.30;;;16.40;99.90;;;;;;4898114;29;20218;-72
2021/06/22 13:57:05;;;;;;;13.43;6.87;;;16.40;99.90;;;;;;4898534;29;20198;-72
2021/06/22 13:59:32;;;;;;;9.43;6.07;;;16.50;99.90;;;;;;4898157;29;20218;-71
2021/06/22 14:02:00;;;;;;;12.13;6.47;;;16.60;99.90;;;;;;4893965;29;20238;-72
2021/06/22 14:04:27;;;;;;;10.57;6.77;;;16.60;99.90;;;;;;4897152;29;20232;-72
2021/06/22 14:06:54;;;;;;;11.13;6.77;;;16.60;99.90;;;;;;4898110;29;20210;-72
2021/06/22 14:09:21;;;;;;;10.07;6.80;;;16.80;99.90;;;;;;4897778;29;20230;-72
2021/06/22 14:11:48;;;;;;;11.97;6.20;;;16.80;99.90;;;;;;4898301;29;20316;-73
2021/06/22 14:14:15;;;;;;;11.00;6.63;;;16.90;99.90;;;;;;4898338;29;20233;-72
2021/06/22 14:16:43;;;;;;;10.90;6.70;;;17.00;99.90;;;;;;4898105;29;20214;-72
2021/06/22 14:19:14;;;;;;;12.23;6.77;;;17.00;99.90;;;;;;4898085;29;20242;-72
2021/06/22 14:21:41;;;;;;;10.87;5.83;;;17.10;99.90;;;;;;4898013;29;20581;-72
2021/06/22 14:24:08;;;;;;;12.03;6.97;;;17.30;99.90;;;;;;4898040;29;20210;-72
2021/06/22 14:26:35;;;;;;;11.47;7.50;;;17.20;99.90;;;;;;4898101;29;20206;-73
2021/06/22 14:29:02;;;;;;;9.27;6.23;;;17.30;99.90;;;;;;4897890;29;20225;-73
2021/06/22 14:31:29;;;;;;;10.83;6.73;;;17.30;99.90;;;;;;4897704;29;20234;-72
2021/06/22 14:33:56;;;;;;;11.43;6.27;;;17.40;99.90;;;;;;4897578;29;20210;-72
2021/06/22 14:36:24;;;;;;;11.50;6.80;;;17.30;99.90;;;;;;4898159;29;20297;-71
2021/06/22 14:38:50;;;;;;;12.17;6.70;;;17.30;99.90;;;;;;4897531;29;20252;-72
2021/06/22 14:41:17;;;;;;;11.43;6.90;;;17.40;99.90;;;;;;4897651;29;20230;-71
2021/06/22 14:43:44;;;;;;;11.10;6.10;;;17.30;99.90;;;;;;4897732;29;20649;-72
2021/06/22 14:46:11;;;;;;;10.97;6.43;;;17.30;99.90;;;;;;4897966;29;20214;-72
2021/06/22 14:48:38;;;;;;;10.67;7.07;;;17.20;99.90;;;;;;4897215;29;20566;-72
2021/06/22 14:51:06;;;;;;;9.93;5.90;;;17.20;99.90;;;;;;4897559;29;20266;-72
2021/06/22 14:53:34;;;;;;;9.90;6.97;;;17.30;99.90;;;;;;4897029;29;20206;-71
2021/06/22 14:56:01;;;;;;;11.77;7.00;;;17.10;99.90;;;;;;4897203;29;20214;-72
2021/06/22 14:58:27;;;;;;;11.03;6.87;;;17.20;99.90;;;;;;4897636;29;20244;-71
2021/06/22 15:00:57;;;;;;;12.53;7.63;;;17.30;99.90;;;;;;4897411;29;20233;-71
2021/06/22 15:03:25;;;;;;;12.53;6.67;;;17.00;99.90;;;;;;4891576;29;20213;-71
2021/06/22 15:05:53;;;;;;;11.43;7.60;;;17.00;99.90;;;;;;4890265;29;20214;-72
2021/06/22 15:08:20;;;;;;;12.27;7.90;;;17.00;99.90;;;;;;4897546;29;20757;-71
2021/06/22 15:10:49;;;;;;;12.50;8.40;;;17.10;99.90;;;;;;4897473;29;20222;-72
2021/06/22 15:13:16;;;;;;;13.23;8.53;;;17.10;99.90;;;;;;4897250;29;20211;-72
2021/06/22 15:15:44;;;;;;;14.07;9.40;;;17.10;99.90;;;;;;4897482;29;20210;-71
2021/06/22 15:18:11;;;;;;;13.70;8.50;;;17.00;99.90;;;;;;4899775;29;20230;-72
2021/06/22 15:20:38;;;;;;;14.97;9.10;;;16.90;99.90;;;;;;4901272;29;20242;-72
2021/06/22 15:23:07;;;;;;;13.13;8.90;;;16.80;99.90;;;;;;4901034;29;20301;-71
2021/06/22 15:25:34;;;;;;;14.13;9.57;;;16.90;99.90;;;;;;4901063;29;20214;-72
2021/06/22 15:28:02;;;;;;;12.67;9.17;;;16.80;99.90;;;;;;4901290;29;20210;-71
2021/06/22 15:30:29;;;;;;;13.03;9.67;;;16.60;99.90;;;;;;4900799;29;20234;-72
2021/06/22 15:32:56;;;;;;;15.57;10.20;;;16.70;99.90;;;;;;4900767;29;20206;-72
2021/06/22 15:35:23;;;;;;;17.63;10.30;;;16.70;99.90;;;;;;4901268;29;20214;-71
2021/06/22 15:37:51;;;;;;;16.00;10.10;;;16.60;99.90;;;;;;4901116;29;20628;-72
2021/06/22 15:40:20;;;;;;;18.77;10.03;;;16.90;99.90;;;;;;4900956;29;20258;-71
2021/06/22 15:42:48;;;;;;;14.17;10.27;;;17.00;99.90;;;;;;4900515;29;20654;-71
2021/06/22 15:45:20;;;;;;;15.17;10.13;;;16.80;99.90;;;;;;4900862;29;20697;-72
2021/06/22 15:47:49;;;;;;;18.37;10.63;;;16.50;99.90;;;;;;4900568;29;20689;-71
2021/06/22 15:50:18;;;;;;;14.80;10.60;;;16.60;99.90;;;;;;4900519;29;20231;-72
2021/06/22 15:52:45;;;;;;;17.30;10.67;;;16.70;99.90;;;;;;4900644;29;20202;-72
2021/06/22 15:55:17;;;;;;;15.77;10.90;;;16.60;99.90;;;;;;4900434;29;20264;-72
2021/06/22 15:57:45;;;;;;;15.53;10.83;;;16.50;99.90;;;;;;4900738;29;20206;-72
2021/06/22 16:00:13;;;;;;;17.13;10.83;;;16.50;99.90;;;;;;4900482;29;20230;-71
2021/06/22 16:02:41;;;;;;;17.57;11.50;;;16.70;99.90;;;;;;4896432;29;20225;-71
2021/06/22 16:05:10;;;;;;;16.37;11.50;;;16.80;99.90;;;;;;4894290;29;20206;-72
2021/06/22 16:07:37;;;;;;;16.13;10.47;;;16.80;99.90;;;;;;4899319;29;20220;-72
2021/06/22 16:10:04;;;;;;;15.90;11.27;;;16.70;99.90;;;;;;4899107;29;20222;-73
2021/06/22 16:12:31;;;;;;;18.93;11.80;;;16.90;99.90;;;;;;4899837;29;20210;-71
2021/06/22 16:14:58;;;;;;;17.53;11.50;;;16.80;99.90;;;;;;4898602;29;20207;-73
2021/06/22 16:17:26;;;;;;;17.87;11.80;;;16.90;99.90;;;;;;4899497;29;20215;-71
2021/06/22 16:19:55;;;;;;;18.10;11.00;;;16.90;99.90;;;;;;4882794;29;20328;-72
2021/06/22 16:22:22;;;;;;;18.07;11.87;;;16.80;99.90;;;;;;4899847;29;20680;-71
2021/06/22 16:24:50;;;;;;;15.67;11.33;;;16.70;99.90;;;;;;4900037;29;20207;-71
2021/06/22 16:27:17;;;;;;;18.03;11.30;;;16.70;99.90;;;;;;4899906;29;20210;-72
2021/06/22 16:29:43;;;;;;;16.40;11.73;;;16.60;99.90;;;;;;4899187;29;20227;-72
2021/06/22 16:32:10;;;;;;;18.30;12.30;;;16.50;99.90;;;;;;4900393;29;20211;-72
2021/06/22 16:34:38;;;;;;;17.73;11.67;;;16.50;99.90;;;;;;4899200;29;20211;-71
2021/06/22 16:37:06;;;;;;;19.50;12.37;;;16.60;99.90;;;;;;4900184;29;20226;-71
2021/06/22 16:39:33;;;;;;;18.27;11.73;;;16.50;99.90;;;;;;4899415;29;20713;-71
2021/06/22 16:41:59;;;;;;;17.13;11.80;;;16.70;99.90;;;;;;4899737;29;20689;-71
2021/06/22 16:44:26;;;;;;;19.27;12.07;;;16.70;99.90;;;;;;4899300;29;20673;-70
2021/06/22 16:46:55;;;;;;;17.20;12.57;;;16.60;99.90;;;;;;4899698;29;20221;-73
2021/06/22 16:49:22;;;;;;;17.90;12.33;;;16.70;99.90;;;;;;4899771;29;20665;-72
2021/06/22 16:51:49;;;;;;;18.07;12.37;;;16.70;99.90;;;;;;4899923;29;20217;-72
2021/06/22 16:54:17;;;;;;;19.03;13.13;;;16.70;99.90;;;;;;4899253;29;20286;-71
2021/06/22 16:56:44;;;;;;;18.50;12.70;;;16.80;99.90;;;;;;4899309;29;20214;-71
2021/06/22 16:59:11;;;;;;;18.60;13.40;;;17.00;99.90;;;;;;4899610;29;20237;-73
2021/06/22 17:01:38;;;;;;;20.17;12.73;;;17.10;99.90;;;;;;4899111;29;20589;-72
2021/06/22 17:04:05;;;;;;;22.27;13.87;;;17.10;99.90;;;;;;4899041;29;20681;-72
2021/06/22 17:06:32;;;;;;;21.93;13.23;;;17.20;99.90;;;;;;4899005;29;20238;-72
2021/06/22 17:08:59;;;;;;;21.73;13.80;;;17.00;99.90;;;;;;4898874;29;20214;-70
2021/06/22 17:11:27;;;;;;;20.00;13.83;;;16.90;99.90;;;;;;4898028;29;20730;-70
2021/06/22 17:13:53;;;;;;;20.90;13.83;;;16.80;99.90;;;;;;4898961;29;20210;-70
2021/06/22 17:16:20;;;;;;;21.53;13.03;;;16.80;99.90;;;;;;4899211;29;20213;-70
2021/06/22 17:18:47;;;;;;;20.93;13.33;;;16.80;99.90;;;;;;4901842;29;20239;-69
2021/06/22 17:21:14;;;;;;;17.47;12.87;;;16.90;99.90;;;;;;4917955;29;20607;-71
2021/06/22 17:23:41;;;;;;;22.80;14.03;;;16.90;99.90;;;;;;4913383;29;20214;-70
2021/06/22 17:26:08;;;;;;;18.27;13.40;;;16.90;99.90;;;;;;4899368;29;20216;-71
2021/06/22 17:28:36;;;;;;;17.57;11.47;;;16.90;99.90;;;;;;4899098;29;20748;-70
2021/06/22 17:31:03;;;;;;;17.17;11.87;;;17.00;99.90;;;;;;4898572;29;20230;-70
2021/06/22 17:33:30;;;;;;;15.53;11.20;;;16.90;99.90;;;;;;4899834;29;20210;-71
2021/06/22 17:35:57;;;;;;;17.60;10.83;;;16.70;99.90;;;;;;4900300;29;20221;-70
2021/06/22 17:38:24;;;;;;;17.23;10.50;;;16.60;99.90;;;;;;4899764;29;20226;-70
2021/06/22 17:40:51;;;;;;;14.03;10.40;;;16.80;99.90;;;;;;4898591;29;20230;-70
2021/06/22 17:43:19;;;;;;;15.03;10.33;;;16.70;99.90;;;;;;4899261;29;20207;-70
2021/06/22 17:45:47;;;;;;;14.87;10.40;;;16.80;99.90;;;;;;4899443;29;20271;-71
2021/06/22 17:48:14;;;;;;;16.60;10.63;;;16.80;99.90;;;;;;4899114;29;20293;-71
2021/06/22 17:50:42;;;;;;;13.23;9.10;;;16.80;99.90;;;;;;4898931;29;20226;-71
2021/06/22 17:53:09;;;;;;;14.00;10.10;;;16.70;99.90;;;;;;4898977;29;20211;-70
2021/06/22 17:55:36;;;;;;;13.00;9.57;;;16.50;99.90;;;;;;4898128;29;20309;-70
2021/06/22 17:58:08;;;;;;;16.13;10.60;;;16.30;99.90;;;;;;4898740;29;20217;-70
2021/06/22 18:00:37;;;;;;;18.20;10.47;;;16.30;99.90;;;;;;4880037;29;20242;-70
2021/06/22 18:03:05;;;;;;;13.73;10.07;;;16.20;99.90;;;;;;4879910;29;20211;-70
2021/06/22 18:05:32;;;;;;;15.73;10.60;;;16.10;99.90;;;;;;4879546;29;20231;-70
2021/06/22 18:08:00;;;;;;;16.50;10.20;;;16.00;99.90;;;;;;4879964;29;20226;-70
2021/06/22 18:10:27;;;;;;;15.60;11.03;;;15.90;99.90;;;;;;4879300;29;20805;-71
2021/06/22 18:12:56;;;;;;;14.83;10.60;;;15.90;99.90;;;;;;4894062;29;20789;-73
2021/06/22 18:15:25;;;;;;;17.10;11.17;;;15.80;99.90;;;;;;4896849;29;20258;-73
2021/06/22 18:17:53;;;;;;;18.37;12.33;;;16.00;99.90;;;;;;4895901;29;20199;-72
2021/06/22 18:20:22;;;;;;;19.47;11.83;;;16.00;99.90;;;;;;4895909;29;20587;-72
2021/06/22 18:22:50;;;;;;;16.43;11.47;;;15.90;99.90;;;;;;4897784;29;20210;-72
2021/06/22 18:25:18;;;;;;;17.23;11.20;;;15.80;99.90;;;;;;4897667;29;20269;-72
2021/06/22 18:27:45;;;;;;;16.87;11.33;;;15.80;99.90;;;;;;4897854;29;20206;-71
2021/06/22 18:30:15;;;;;;;17.53;10.97;;;15.80;99.90;;;;;;4897841;29;20222;-76
2021/06/22 18:32:42;;;;;;;20.77;11.53;;;15.80;99.90;;;;;;4897524;29;20225;-76
2021/06/22 18:35:11;;;;;;;18.03;12.80;;;15.60;99.90;;;;;;4898076;29;20249;-76
2021/06/22 18:37:39;;;;;;;21.23;12.33;;;15.70;99.90;;;;;;4897930;29;20221;-74
2021/06/22 18:40:09;;;;;;;15.87;11.53;;;15.90;99.90;;;;;;4897828;29;20238;-71
2021/06/22 18:42:36;;;;;;;20.27;12.30;;;15.90;99.90;;;;;;4894274;29;20206;-74
2021/06/22 18:45:04;;;;;;;19.20;12.40;;;16.00;99.90;;;;;;4896935;29;20293;-74
2021/06/22 18:47:31;;;;;;;18.37;11.77;;;16.00;99.90;;;;;;4897701;29;20570;-74
2021/06/22 18:49:57;;;;;;;18.87;11.53;;;16.00;99.90;;;;;;4898506;29;20320;-74
2021/06/22 18:52:24;;;;;;;17.97;11.13;;;15.90;99.90;;;;;;4899806;29;20220;-74
2021/06/22 18:54:52;;;;;;;13.93;10.90;;;15.70;99.90;;;;;;4903917;29;20225;-74
2021/06/22 18:57:19;;;;;;;16.83;10.97;;;15.80;99.90;;;;;;4899696;29;20737;-74
2021/06/22 18:59:46;;;;;;;15.37;10.20;;;15.90;99.90;;;;;;4902973;29;20709;-74
2021/06/22 19:02:13;;;;;;;17.23;10.27;;;15.80;99.90;;;;;;4904100;29;20566;-74
2021/06/22 19:04:39;;;;;;;15.27;10.90;;;15.60;99.90;;;;;;4904208;29;20222;-73
2021/06/22 19:07:06;;;;;;;15.27;10.13;;;15.60;99.90;;;;;;4904326;29;20237;-74
2021/06/22 19:09:33;;;;;;;15.70;10.40;;;15.70;99.90;;;;;;4903773;29;20684;-74
2021/06/22 19:12:01;;;;;;;14.70;10.27;;;15.80;99.90;;;;;;4903848;29;20266;-75
2021/06/22 19:14:33;;;;;;;15.83;9.30;;;15.80;99.90;;;;;;4904078;29;20306;-74
2021/06/22 19:17:00;;;;;;;15.27;10.43;;;15.90;99.90;;;;;;4904164;29;20217;-74
2021/06/22 19:19:26;;;;;;;16.13;9.53;;;16.00;99.90;;;;;;4903992;29;20244;-74
2021/06/22 19:21:54;;;;;;;16.97;10.57;;;15.80;99.90;;;;;;4904240;29;20298;-74
2021/06/22 19:24:22;;;;;;;14.87;9.60;;;15.70;99.90;;;;;;4903888;29;20218;-74
2021/06/22 19:26:50;;;;;;;13.87;9.43;;;15.60;99.90;;;;;;4903958;29;20206;-74
2021/06/22 19:29:18;;;;;;;14.37;10.10;;;15.70;99.90;;;;;;4903848;29;20688;-75
2021/06/22 19:31:46;;;;;;;15.63;10.50;;;15.60;99.90;;;;;;4903882;29;20226;-75
2021/06/22 19:34:13;;;;;;;16.10;10.63;;;15.60;99.90;;;;;;4903695;29;20214;-74
2021/06/22 19:36:39;;;;;;;14.47;10.23;;;15.80;99.90;;;;;;4903790;29;20216;-74
2021/06/22 19:39:07;;;;;;;14.90;10.00;;;15.80;99.90;;;;;;4903727;29;20258;-74
2021/06/22 19:41:34;;;;;;;13.83;10.37;;;15.80;99.90;;;;;;4903674;29;20226;-75
2021/06/22 19:44:01;;;;;;;15.80;10.63;;;15.70;99.90;;;;;;4904440;29;20242;-74
2021/06/22 19:46:29;;;;;;;15.67;10.63;;;15.70;99.90;;;;;;4904045;29;20210;-74